createdAt,value
2018-05-05T00:00:33.457Z,4.10
2018-05-05T00:03:00.930Z,3.63
2018-05-05T00:05:28.417Z,3.67
2018-05-05T00:07:55.877Z,3.70
2018-05-05T00:10:23.318Z,3.87
2018-05-05T00:12:50.788Z,3.80
2018-05-05T00:15:18.255Z,4.33
2018-05-05T00:17:45.705Z,5.00
2018-05-05T00:20:13.136Z,4.10
2018-05-05T00:22:40.566Z,4.60
2018-05-05T00:25:07.995Z,4.23
2018-05-05T00:27:35.426Z,5.03
2018-05-05T00:30:02.858Z,3.67
2018-05-05T00:32:30.345Z,3.90
2018-05-05T00:34:57.795Z,4.40
2018-05-05T00:37:25.217Z,3.67
2018-05-05T00:39:52.641Z,3.40
2018-05-05T00:42:20.073Z,3.87
2018-05-05T00:44:47.504Z,4.30
2018-05-05T00:47:14.933Z,3.63
2018-05-05T00:49:42.369Z,3.53
2018-05-05T00:52:09.889Z,4.07
2018-05-05T00:54:45.984Z,3.50
2018-05-05T00:57:13.412Z,3.87
2018-05-05T00:59:40.872Z,4.17
2018-05-05T01:02:08.318Z,4.00
2018-05-05T01:04:35.825Z,4.10
2018-05-05T01:07:03.340Z,4.00
2018-05-05T01:09:30.774Z,3.33
2018-05-05T01:11:58.192Z,4.87
2018-05-05T01:14:25.653Z,4.43
2018-05-05T01:16:53.070Z,3.90
2018-05-05T01:19:20.496Z,4.13
2018-05-05T01:21:47.977Z,3.67
2018-05-05T01:24:15.449Z,4.30
2018-05-05T01:26:42.910Z,4.00
2018-05-05T01:29:10.537Z,4.00
2018-05-05T01:31:37.976Z,3.77
2018-05-05T01:34:05.396Z,4.40
2018-05-05T01:36:32.817Z,4.20
2018-05-05T01:39:00.245Z,3.73
2018-05-05T01:41:27.684Z,4.00
2018-05-05T01:43:55.112Z,3.93
2018-05-05T01:46:22.553Z,3.90
2018-05-05T01:48:50.089Z,4.97
2018-05-05T01:51:18.320Z,4.22
2018-05-05T01:53:45.757Z,3.57
2018-05-05T01:56:13.180Z,4.20
2018-05-05T01:58:40.602Z,3.40
2018-05-05T02:01:08.123Z,3.97
2018-05-05T02:03:35.549Z,3.80
2018-05-05T02:06:02.975Z,3.53
2018-05-05T02:08:30.421Z,4.10
2018-05-05T02:10:57.851Z,3.70
2018-05-05T02:13:25.277Z,3.60
2018-05-05T02:15:52.710Z,3.60
2018-05-05T02:18:20.195Z,4.43
2018-05-05T02:20:47.627Z,3.57
2018-05-05T02:23:15.126Z,4.30
2018-05-05T02:25:42.692Z,3.43
2018-05-05T02:28:10.165Z,3.80
2018-05-05T02:30:37.676Z,3.60
2018-05-05T02:33:05.109Z,4.07
2018-05-05T02:35:32.621Z,3.80
2018-05-05T02:38:00.053Z,4.00
2018-05-05T02:40:27.473Z,4.00
2018-05-05T02:42:54.902Z,3.70
2018-05-05T02:45:22.351Z,3.53
2018-05-05T02:47:49.784Z,3.80
2018-05-05T02:50:17.208Z,4.20
2018-05-05T02:52:44.725Z,3.37
2018-05-05T02:55:12.158Z,3.57
2018-05-05T02:57:39.703Z,4.00
2018-05-05T03:00:07.147Z,3.83
2018-05-05T03:02:34.578Z,3.95
2018-05-05T03:05:02.012Z,3.60
2018-05-05T03:07:29.460Z,3.67
2018-05-05T03:09:56.891Z,3.50
2018-05-05T03:12:24.318Z,3.70
2018-05-05T03:14:51.753Z,4.20
2018-05-05T03:17:19.180Z,4.33
2018-05-05T03:19:46.603Z,4.47
2018-05-05T03:22:14.049Z,4.20
2018-05-05T03:24:41.479Z,4.00
2018-05-05T03:27:08.910Z,4.70
2018-05-05T03:29:36.349Z,4.70
2018-05-05T03:32:03.773Z,4.53
2018-05-05T03:34:31.201Z,4.10
2018-05-05T03:36:58.633Z,3.73
2018-05-05T03:39:26.060Z,4.37
2018-05-05T03:41:54.349Z,4.13
2018-05-05T03:44:21.780Z,4.33
2018-05-05T03:46:49.292Z,4.67
2018-05-05T03:49:16.712Z,4.77
2018-05-05T03:51:44.149Z,4.53
2018-05-05T03:54:11.682Z,4.27
2018-05-05T03:56:39.108Z,4.20
2018-05-05T03:59:18.283Z,4.30
2018-05-05T04:01:57.691Z,4.70
2018-05-05T04:04:25.142Z,4.60
2018-05-05T04:06:52.566Z,5.40
2018-05-05T04:09:20.002Z,4.17
2018-05-05T04:11:47.516Z,5.00
2018-05-05T04:14:14.978Z,4.50
2018-05-05T04:16:42.406Z,4.73
2018-05-05T04:19:10.137Z,5.00
2018-05-05T04:21:37.596Z,5.22
2018-05-05T04:24:05.016Z,4.50
2018-05-05T04:26:32.462Z,5.00
2018-05-05T04:28:59.939Z,5.53
2018-05-05T04:31:27.361Z,4.53
2018-05-05T04:33:54.803Z,4.70
2018-05-05T04:36:22.232Z,4.03
2018-05-05T04:38:49.668Z,4.97
2018-05-05T04:41:17.115Z,5.07
2018-05-05T04:43:44.541Z,4.43
2018-05-05T04:46:12.113Z,4.63
2018-05-05T04:48:39.569Z,4.70
2018-05-05T04:51:06.993Z,5.20
2018-05-05T04:53:34.469Z,4.77
2018-05-05T04:56:01.900Z,4.80
2018-05-05T04:58:29.382Z,4.37
2018-05-05T05:00:56.817Z,5.33
2018-05-05T05:03:24.260Z,5.60
2018-05-05T05:05:51.708Z,5.27
2018-05-05T05:08:19.141Z,4.60
2018-05-05T05:10:46.577Z,5.50
2018-05-05T05:13:14.004Z,5.50
2018-05-05T05:15:41.518Z,5.93
2018-05-05T05:18:08.974Z,5.40
2018-05-05T05:20:36.402Z,5.20
2018-05-05T05:23:03.829Z,5.30
2018-05-05T05:25:31.374Z,5.83
2018-05-05T05:27:58.804Z,5.77
2018-05-05T05:30:26.225Z,5.17
2018-05-05T05:32:53.679Z,7.10
2018-05-05T05:35:21.105Z,6.50
2018-05-05T05:37:48.536Z,5.97
2018-05-05T05:40:15.983Z,6.13
2018-05-05T05:42:43.422Z,5.50
2018-05-05T05:45:10.850Z,6.40
2018-05-05T05:47:38.362Z,6.23
2018-05-05T05:50:05.828Z,6.07
2018-05-05T05:52:33.316Z,6.60
2018-05-05T05:55:00.778Z,6.37
2018-05-05T05:57:28.208Z,7.23
2018-05-05T05:59:55.783Z,6.60
2018-05-05T06:02:23.160Z,6.37
2018-05-05T06:04:50.644Z,6.73
2018-05-05T06:07:18.110Z,5.90
2018-05-05T06:09:45.548Z,5.90
2018-05-05T06:12:12.982Z,6.53
2018-05-05T06:14:40.408Z,6.20
2018-05-05T06:17:07.932Z,5.73
2018-05-05T06:19:35.370Z,6.83
2018-05-05T06:22:02.884Z,6.70
2018-05-05T06:24:30.413Z,6.77
2018-05-05T06:26:57.765Z,6.00
2018-05-05T06:29:25.193Z,5.77
2018-05-05T06:31:52.633Z,5.63
2018-05-05T06:34:20.069Z,6.57
2018-05-05T06:36:47.496Z,6.40
2018-05-05T06:39:14.937Z,6.60
2018-05-05T06:41:42.404Z,6.63
2018-05-05T06:44:09.865Z,6.80
2018-05-05T06:46:37.297Z,6.40
2018-05-05T06:49:04.735Z,6.53
2018-05-05T06:51:32.156Z,7.83
2018-05-05T06:54:00.101Z,11.17
2018-05-05T06:56:27.529Z,9.80
2018-05-05T06:58:55.017Z,6.93
2018-05-05T07:01:22.460Z,7.10
2018-05-05T07:03:49.928Z,6.40
2018-05-05T07:06:17.356Z,7.43
2018-05-05T07:08:44.796Z,7.13
2018-05-05T07:11:12.244Z,6.60
2018-05-05T07:13:39.670Z,7.30
2018-05-05T07:16:07.116Z,7.00
2018-05-05T07:18:34.540Z,6.73
2018-05-05T07:21:02.029Z,7.17
2018-05-05T07:23:29.488Z,7.67
2018-05-05T07:25:56.916Z,7.10
2018-05-05T07:28:24.343Z,7.13
2018-05-05T07:30:51.799Z,7.70
2018-05-05T07:33:19.313Z,8.03
2018-05-05T07:35:46.738Z,8.20
2018-05-05T07:38:14.201Z,8.07
2018-05-05T07:40:41.721Z,6.87
2018-05-05T07:43:09.209Z,8.07
2018-05-05T07:45:36.755Z,7.03
2018-05-05T07:48:04.261Z,7.80
2018-05-05T07:50:31.689Z,8.37
2018-05-05T07:52:59.132Z,8.37
2018-05-05T07:55:26.640Z,8.70
2018-05-05T07:57:54.064Z,8.17
2018-05-05T08:00:21.556Z,7.37
2018-05-05T08:02:49.058Z,7.40
2018-05-05T08:05:16.476Z,8.80
2018-05-05T08:07:43.924Z,6.73
2018-05-05T08:10:12.492Z,7.90
2018-05-05T08:12:39.920Z,7.30
2018-05-05T08:15:07.409Z,7.00
2018-05-05T08:17:34.858Z,6.60
2018-05-05T08:20:02.313Z,6.10
2018-05-05T08:22:29.780Z,7.40
2018-05-05T08:24:57.274Z,7.17
2018-05-05T08:27:24.705Z,6.33
2018-05-05T08:29:52.518Z,8.17
2018-05-05T08:32:20.022Z,7.57
2018-05-05T08:34:47.526Z,8.00
2018-05-05T08:37:15.012Z,7.37
2018-05-05T08:39:42.440Z,7.57
2018-05-05T08:42:09.886Z,7.80
2018-05-05T08:44:37.330Z,7.60
2018-05-05T08:47:04.781Z,7.30
2018-05-05T08:49:32.225Z,9.00
2018-05-05T08:51:59.687Z,9.27
2018-05-05T08:54:27.400Z,9.40
2018-05-05T08:56:54.834Z,9.53
2018-05-05T08:59:22.395Z,9.67
2018-05-05T09:01:49.825Z,9.17
2018-05-05T09:04:18.113Z,9.77
2018-05-05T09:06:45.551Z,8.90
2018-05-05T09:09:12.981Z,11.77
2018-05-05T09:11:40.471Z,10.23
2018-05-05T09:14:07.921Z,9.03
2018-05-05T09:16:35.393Z,9.67
2018-05-05T09:19:02.829Z,9.40
2018-05-05T09:21:30.291Z,10.03
2018-05-05T09:23:57.741Z,10.17
2018-05-05T09:26:25.341Z,9.77
2018-05-05T09:28:52.961Z,10.30
2018-05-05T09:31:20.385Z,9.67
2018-05-05T09:33:47.838Z,10.20
2018-05-05T09:36:15.284Z,9.77
2018-05-05T09:38:43.368Z,9.90
2018-05-05T09:41:10.811Z,11.33
2018-05-05T09:43:38.260Z,10.07
2018-05-05T09:46:05.792Z,9.73
2018-05-05T09:48:33.316Z,8.90
2018-05-05T09:51:01.086Z,9.13
2018-05-05T09:53:28.558Z,8.87
2018-05-05T09:55:56.030Z,8.67
2018-05-05T09:58:23.478Z,8.17
2018-05-05T10:00:50.973Z,8.53
2018-05-05T10:03:18.356Z,8.17
2018-05-05T10:05:45.789Z,8.53
2018-05-05T10:08:13.221Z,7.87
2018-05-05T10:10:40.666Z,7.90
2018-05-05T10:13:08.106Z,7.20
2018-05-05T10:15:35.554Z,6.90
2018-05-05T10:18:03.041Z,7.17
2018-05-05T10:20:30.481Z,6.83
2018-05-05T10:22:57.976Z,7.20
2018-05-05T10:25:25.412Z,7.23
2018-05-05T10:27:52.848Z,6.73
2018-05-05T10:30:20.330Z,7.00
2018-05-05T10:32:47.760Z,7.30
2018-05-05T10:35:15.210Z,7.40
2018-05-05T10:37:42.706Z,6.80
2018-05-05T10:40:10.102Z,6.60
2018-05-05T10:42:37.547Z,6.10
2018-05-05T10:45:05.038Z,6.50
2018-05-05T10:47:32.524Z,6.20
2018-05-05T10:49:59.962Z,6.63
2018-05-05T10:52:27.395Z,6.50
2018-05-05T10:54:54.868Z,6.70
2018-05-05T10:57:22.306Z,6.30
2018-05-05T10:59:49.779Z,6.67
2018-05-05T11:02:17.322Z,6.30
2018-05-05T11:04:44.773Z,6.07
2018-05-05T11:07:12.285Z,5.90
2018-05-05T11:09:39.749Z,5.20
2018-05-05T11:12:07.197Z,5.77
2018-05-05T11:14:34.713Z,5.40
2018-05-05T11:17:02.145Z,5.30
2018-05-05T11:19:29.588Z,5.20
2018-05-05T11:21:57.021Z,5.10
2018-05-05T11:24:24.448Z,5.20
2018-05-05T11:26:51.880Z,5.30
2018-05-05T11:29:19.365Z,5.47
2018-05-05T11:31:46.928Z,5.27
2018-05-05T11:34:14.372Z,4.60
2018-05-05T11:36:41.880Z,4.80
2018-05-05T11:39:09.305Z,5.30
2018-05-05T11:41:36.790Z,5.13
2018-05-05T11:44:04.233Z,4.70
2018-05-05T11:46:31.657Z,5.13
2018-05-05T11:48:59.084Z,4.77
2018-05-05T11:51:26.512Z,4.70
2018-05-05T11:53:53.936Z,4.57
2018-05-05T11:56:21.453Z,5.30
2018-05-05T11:58:48.818Z,4.80
2018-05-05T12:01:16.253Z,4.40
2018-05-05T12:03:43.700Z,4.87
2018-05-05T12:06:11.143Z,4.53
2018-05-05T12:08:38.592Z,5.07
2018-05-05T12:11:06.038Z,5.47
2018-05-05T12:13:33.557Z,7.03
2018-05-05T12:16:00.979Z,7.20
2018-05-05T12:18:28.417Z,6.43
2018-05-05T12:20:55.841Z,7.43
2018-05-05T12:23:23.361Z,7.33
2018-05-05T12:25:50.817Z,6.97
2018-05-05T12:28:18.257Z,7.87
2018-05-05T12:30:45.729Z,9.83
2018-05-05T12:33:13.177Z,10.20
2018-05-05T12:35:40.621Z,7.80
2018-05-05T12:38:08.101Z,7.90
2018-05-05T12:40:35.578Z,8.30
2018-05-05T12:43:03.029Z,7.83
2018-05-05T12:45:30.468Z,7.50
2018-05-05T12:47:57.908Z,7.53
2018-05-05T12:50:25.350Z,8.30
2018-05-05T12:52:52.784Z,7.60
2018-05-05T12:55:20.322Z,8.73
2018-05-05T12:57:47.754Z,7.33
2018-05-05T13:00:15.220Z,7.67
2018-05-05T13:02:42.667Z,8.17
2018-05-05T13:05:10.098Z,8.43
2018-05-05T13:07:37.546Z,9.00
2018-05-05T13:10:05.006Z,7.87
2018-05-05T13:12:32.451Z,7.90
2018-05-05T13:14:59.963Z,9.00
2018-05-05T13:17:27.393Z,8.93
2018-05-05T13:19:54.835Z,9.60
2018-05-05T13:22:22.333Z,9.73
2018-05-05T13:24:49.898Z,10.20
2018-05-05T13:27:17.333Z,9.20
2018-05-05T13:29:44.773Z,10.10
2018-05-05T13:32:12.229Z,10.10
2018-05-05T13:34:39.717Z,9.40
2018-05-05T13:37:07.170Z,10.23
2018-05-05T13:39:34.618Z,10.53
2018-05-05T13:42:02.076Z,9.70
2018-05-05T13:44:29.526Z,9.80
2018-05-05T13:46:56.988Z,9.83
2018-05-05T13:49:24.530Z,9.50
2018-05-05T13:51:51.978Z,10.47
2018-05-05T13:54:19.447Z,11.60
2018-05-05T13:56:46.963Z,10.37
2018-05-05T13:59:14.400Z,11.07
2018-05-05T14:01:42.520Z,10.60
2018-05-05T14:04:09.992Z,10.80
2018-05-05T14:06:37.517Z,10.63
2018-05-05T14:09:05.050Z,10.80
2018-05-05T14:11:32.609Z,10.27
2018-05-05T14:14:00.037Z,9.47
2018-05-05T14:16:27.517Z,9.47
2018-05-05T14:18:55.130Z,9.93
2018-05-05T14:21:22.553Z,9.55
2018-05-05T14:23:50.017Z,9.20
2018-05-05T14:26:17.479Z,9.10
2018-05-05T14:28:45.015Z,12.73
2018-05-05T14:31:12.556Z,9.10
2018-05-05T14:33:40.091Z,11.47
2018-05-05T14:36:07.536Z,9.20
2018-05-05T14:38:35.001Z,10.80
2018-05-05T14:41:02.445Z,8.77
2018-05-05T14:43:29.888Z,9.17
2018-05-05T14:45:57.352Z,8.63
2018-05-05T14:48:24.790Z,9.18
2018-05-05T14:50:52.236Z,8.90
2018-05-05T14:53:19.675Z,8.70
2018-05-05T14:55:48.060Z,7.70
2018-05-05T14:58:15.480Z,8.37
2018-05-05T15:00:42.926Z,8.40
2018-05-05T15:03:11.925Z,8.37
2018-05-05T15:05:39.352Z,8.43
2018-05-05T15:08:06.797Z,8.87
2018-05-05T15:10:34.346Z,8.73
2018-05-05T15:13:01.771Z,8.70
2018-05-05T15:15:29.213Z,8.47
2018-05-05T15:17:56.657Z,8.17
2018-05-05T15:20:24.085Z,8.43
2018-05-05T15:22:51.533Z,10.60
2018-05-05T15:25:18.957Z,9.00
2018-05-05T15:27:46.397Z,9.87
2018-05-05T15:30:13.829Z,9.13
2018-05-05T15:32:41.253Z,8.97
2018-05-05T15:35:08.703Z,9.73
2018-05-05T15:37:36.165Z,9.73
2018-05-05T15:40:03.917Z,9.47
2018-05-05T15:42:31.351Z,9.40
2018-05-05T15:44:58.795Z,10.10
2018-05-05T15:47:26.294Z,9.67
2018-05-05T15:49:53.965Z,10.17
2018-05-05T15:52:21.405Z,9.13
2018-05-05T15:54:48.868Z,11.13
2018-05-05T15:57:16.316Z,10.20
2018-05-05T15:59:43.756Z,9.30
2018-05-05T16:02:11.240Z,11.70
2018-05-05T16:04:38.700Z,12.60
2018-05-05T16:07:06.152Z,9.33
2018-05-05T16:09:33.612Z,9.90
2018-05-05T16:12:01.059Z,13.37
2018-05-05T16:14:28.606Z,11.20
2018-05-05T16:16:56.102Z,14.70
2018-05-05T16:19:23.536Z,9.33
2018-05-05T16:21:50.986Z,14.83
2018-05-05T16:24:18.446Z,15.60
2018-05-05T16:26:45.922Z,10.30
2018-05-05T16:29:13.481Z,21.23
2018-05-05T16:31:40.922Z,17.63
2018-05-05T16:34:08.361Z,16.67
2018-05-05T16:36:35.815Z,18.67
2018-05-05T16:39:03.251Z,14.57
2018-05-05T16:41:30.698Z,11.97
2018-05-05T16:43:58.217Z,11.90
2018-05-05T16:46:25.646Z,10.13
2018-05-05T16:48:53.076Z,11.00
2018-05-05T16:51:20.704Z,10.13
2018-05-05T16:53:48.137Z,10.57
2018-05-05T16:56:15.576Z,11.10
2018-05-05T16:58:43.020Z,9.73
2018-05-05T17:01:10.462Z,9.50
2018-05-05T17:03:37.890Z,11.23
2018-05-05T17:06:05.440Z,11.03
2018-05-05T17:08:32.882Z,10.57
2018-05-05T17:11:00.419Z,9.60
2018-05-05T17:13:27.869Z,10.00
2018-05-05T17:15:55.386Z,9.70
2018-05-05T17:18:22.816Z,9.83
2018-05-05T17:20:50.488Z,9.73
2018-05-05T17:23:17.924Z,9.40
2018-05-05T17:25:45.357Z,8.93
2018-05-05T17:28:12.802Z,9.23
2018-05-05T17:30:40.225Z,9.43
2018-05-05T17:33:07.657Z,9.45
2018-05-05T17:35:35.101Z,9.10
2018-05-05T17:38:02.658Z,16.17
2018-05-05T17:40:30.088Z,9.90
2018-05-05T17:42:57.593Z,10.40
2018-05-05T17:45:25.018Z,8.90
2018-05-05T17:47:52.565Z,9.47
2018-05-05T17:50:20.001Z,9.10
2018-05-05T17:52:47.434Z,8.63
2018-05-05T17:55:14.857Z,8.07
2018-05-05T17:57:42.308Z,8.90
2018-05-05T18:00:09.768Z,9.73
2018-05-05T18:02:37.216Z,17.13
2018-05-05T18:05:04.960Z,11.10
2018-05-05T18:07:32.454Z,11.13
2018-05-05T18:10:00.151Z,13.83
2018-05-05T18:12:27.634Z,11.60
2018-05-05T18:14:55.144Z,13.23
2018-05-05T18:17:22.577Z,25.43
2018-05-05T18:19:51.064Z,47.50
2018-05-05T18:22:18.532Z,40.13
2018-05-05T18:24:45.964Z,35.13
2018-05-05T18:27:13.476Z,29.00
2018-05-05T18:29:40.905Z,12.20
2018-05-05T18:32:08.411Z,11.80
2018-05-05T18:34:35.878Z,11.10
2018-05-05T18:37:03.267Z,11.00
2018-05-05T18:39:30.715Z,15.30
2018-05-05T18:41:58.294Z,12.00
2018-05-05T18:44:25.753Z,12.07
2018-05-05T18:46:53.231Z,11.33
2018-05-05T18:49:21.749Z,10.67
2018-05-05T18:51:49.187Z,11.53
2018-05-05T18:54:16.628Z,10.83
2018-05-05T18:56:45.677Z,12.73
2018-05-05T18:59:13.277Z,12.40
2018-05-05T19:01:40.899Z,12.57
2018-05-05T19:04:08.392Z,11.80
2018-05-05T19:06:35.856Z,12.47
2018-05-05T19:09:03.312Z,12.27
2018-05-05T19:11:30.762Z,12.60
2018-05-05T19:13:58.194Z,14.30
2018-05-05T19:16:25.650Z,15.23
2018-05-05T19:18:53.102Z,41.47
2018-05-05T19:21:20.552Z,12.93
2018-05-05T19:23:48.022Z,12.40
2018-05-05T19:26:15.477Z,12.07
2018-05-05T19:28:42.914Z,12.40
2018-05-05T19:31:10.393Z,14.17
2018-05-05T19:33:37.854Z,13.70
2018-05-05T19:36:05.311Z,15.07
2018-05-05T19:38:32.745Z,14.23
2018-05-05T19:41:00.245Z,15.67
2018-05-05T19:43:27.677Z,15.00
2018-05-05T19:45:55.113Z,14.90
2018-05-05T19:48:22.639Z,13.10
2018-05-05T19:50:50.081Z,13.73
2018-05-05T19:53:17.528Z,15.07
2018-05-05T19:55:44.984Z,12.50
2018-05-05T19:58:12.428Z,13.80
2018-05-05T20:00:39.940Z,18.20
2018-05-05T20:03:07.384Z,23.37
2018-05-05T20:05:34.830Z,14.33
2018-05-05T20:08:02.266Z,14.50
2018-05-05T20:10:29.744Z,13.77
2018-05-05T20:12:57.235Z,14.50
2018-05-05T20:15:24.673Z,17.70
2018-05-05T20:17:52.332Z,15.27
2018-05-05T20:20:19.802Z,13.70
2018-05-05T20:22:47.254Z,25.77
2018-05-05T20:25:14.704Z,17.80
2018-05-05T20:27:42.150Z,18.30
2018-05-05T20:30:09.616Z,30.30
2018-05-05T20:32:37.066Z,20.80
2018-05-05T20:35:04.500Z,17.80
2018-05-05T20:37:32.649Z,18.27
2018-05-05T20:40:00.220Z,17.50
2018-05-05T20:42:27.617Z,17.83
2018-05-05T20:44:55.109Z,17.03
2018-05-05T20:47:22.584Z,17.00
2018-05-05T20:49:50.017Z,16.00
2018-05-05T20:52:17.464Z,17.10
2018-05-05T20:54:44.997Z,17.50
2018-05-05T20:57:12.467Z,17.40
2018-05-05T20:59:40.672Z,16.33
2018-05-05T21:02:08.115Z,17.57
2018-05-05T21:04:35.556Z,16.37
2018-05-05T21:07:02.989Z,16.17
2018-05-05T21:09:30.438Z,15.73
2018-05-05T21:11:57.874Z,16.80
2018-05-05T21:14:25.381Z,16.17
2018-05-05T21:16:52.944Z,16.30
2018-05-05T21:19:20.490Z,18.83
2018-05-05T21:21:47.951Z,18.90
2018-05-05T21:24:15.406Z,18.80
2018-05-05T21:26:42.839Z,18.83
2018-05-05T21:29:10.355Z,17.37
2018-05-05T21:31:37.842Z,17.87
2018-05-05T21:34:05.281Z,17.73
2018-05-05T21:36:32.797Z,18.20
2018-05-05T21:39:00.353Z,17.30
2018-05-05T21:41:27.845Z,16.90
2018-05-05T21:43:55.373Z,19.03
2018-05-05T21:46:22.817Z,18.67
2018-05-05T21:48:50.249Z,18.33
2018-05-05T21:51:19.069Z,14.53
2018-05-05T21:53:46.528Z,12.30
2018-05-05T21:56:13.961Z,11.93
2018-05-05T21:58:41.508Z,11.23
2018-05-05T22:01:08.964Z,11.03
2018-05-05T22:03:36.399Z,9.93
2018-05-05T22:06:03.832Z,9.60
2018-05-05T22:08:31.284Z,9.00
2018-05-05T22:10:58.718Z,8.90
2018-05-05T22:13:26.248Z,7.80
2018-05-05T22:15:53.735Z,7.40
2018-05-05T22:18:21.166Z,7.80
2018-05-05T22:20:48.588Z,7.17
2018-05-05T22:23:16.036Z,6.47
2018-05-05T22:25:43.468Z,6.10
2018-05-05T22:28:10.898Z,5.83
2018-05-05T22:30:38.378Z,5.80
2018-05-05T22:33:05.833Z,6.17
2018-05-05T22:35:33.288Z,4.60
2018-05-05T22:38:00.734Z,5.03
2018-05-05T22:40:28.156Z,5.30
2018-05-05T22:42:55.590Z,4.07
2018-05-05T22:45:23.026Z,4.73
2018-05-05T22:47:50.453Z,4.23
2018-05-05T22:50:17.996Z,4.20
2018-05-05T22:52:45.433Z,4.03
2018-05-05T22:55:12.957Z,4.10
2018-05-05T22:57:40.389Z,4.20
2018-05-05T23:00:07.825Z,4.93
2018-05-05T23:02:35.254Z,4.33
2018-05-05T23:05:02.681Z,3.70
2018-05-05T23:07:30.121Z,4.47
2018-05-05T23:09:57.559Z,4.53
2018-05-05T23:12:24.980Z,3.50
2018-05-05T23:14:52.500Z,4.00
2018-05-05T23:17:19.958Z,4.03
2018-05-05T23:19:47.390Z,3.80
2018-05-05T23:22:14.853Z,3.47
2018-05-05T23:24:42.289Z,3.77
2018-05-05T23:27:09.744Z,3.43
2018-05-05T23:29:37.186Z,3.83
2018-05-05T23:32:04.613Z,4.00
2018-05-05T23:34:32.063Z,3.67
2018-05-05T23:36:59.505Z,4.20
2018-05-05T23:39:26.934Z,3.73
2018-05-05T23:41:54.362Z,3.63
2018-05-05T23:44:21.853Z,3.30
2018-05-05T23:46:49.298Z,3.13
2018-05-05T23:49:16.731Z,3.37
2018-05-05T23:51:44.173Z,3.20
2018-05-05T23:54:11.671Z,3.17
2018-05-05T23:56:40.441Z,2.93
2018-05-05T23:59:07.881Z,3.40
